createdAt,value
2023-03-11T00:01:57.889Z,97858.78
2023-03-11T00:06:59.783Z,97852.84
2023-03-11T00:12:02.642Z,97832.84
2023-03-11T00:17:04.307Z,97833.78
2023-03-11T00:22:06.438Z,97828.88
2023-03-11T00:27:08.234Z,97827.28
2023-03-11T00:32:09.966Z,97825.53
2023-03-11T00:37:11.987Z,97821.44
2023-03-11T00:42:13.616Z,97834.22
2023-03-11T00:47:15.240Z,97862.72
2023-03-11T00:52:17.062Z,97862.78
2023-03-11T00:57:18.620Z,97850.53
2023-03-11T01:02:20.872Z,97892.56
2023-03-11T01:07:23.900Z,97882.91
2023-03-11T01:12:25.685Z,97883.22
2023-03-11T01:17:27.379Z,97898.47
2023-03-11T01:22:29.004Z,97913.59
2023-03-11T01:27:31.092Z,97937.81
2023-03-11T01:32:32.912Z,97964.63
2023-03-11T01:37:34.735Z,97955.53
2023-03-11T01:42:36.438Z,97968.91
2023-03-11T01:47:40.095Z,97979.72
2023-03-11T01:52:44.904Z,97981.41
2023-03-11T01:57:47.805Z,97983.03
2023-03-11T02:02:55.511Z,97999.81
2023-03-11T02:07:58.238Z,98020.75
2023-03-11T02:13:04.474Z,98014.16
2023-03-11T02:18:08.278Z,98014.25
2023-03-11T02:23:13.139Z,98042.72
2023-03-11T02:28:18.163Z,98008.72
2023-03-11T02:33:20.103Z,98010.66
2023-03-11T02:38:24.272Z,98005.00
2023-03-11T02:43:43.479Z,98012.66
2023-03-11T02:48:47.835Z,98004.41
2023-03-11T02:53:53.059Z,98016.09
2023-03-11T02:58:55.903Z,98032.00
2023-03-11T03:03:57.992Z,98019.53
2023-03-11T03:09:00.184Z,98029.59
2023-03-11T03:14:01.964Z,98033.78
2023-03-11T03:19:03.772Z,98052.94
2023-03-11T03:24:05.841Z,98052.16
2023-03-11T03:29:07.812Z,98085.47
2023-03-11T03:34:10.022Z,98077.13
2023-03-11T03:39:12.052Z,98087.13
2023-03-11T03:44:13.732Z,98089.66
2023-03-11T03:49:15.665Z,98086.34
2023-03-11T03:54:18.736Z,98095.50
2023-03-11T03:59:20.566Z,98103.00
2023-03-11T04:04:27.407Z,98093.84
2023-03-11T04:09:29.977Z,98090.56
2023-03-11T04:14:31.756Z,98090.56
2023-03-11T04:19:35.738Z,98078.06
2023-03-11T04:24:37.699Z,98092.16
2023-03-11T04:29:39.589Z,98084.69
2023-03-11T04:34:42.019Z,98093.81
2023-03-11T04:39:44.159Z,98100.44
2023-03-11T04:44:46.029Z,98099.59
2023-03-11T04:49:47.725Z,98086.28
2023-03-11T04:54:49.468Z,98101.22
2023-03-11T04:59:52.642Z,98107.00
2023-03-11T05:04:54.404Z,98093.66
2023-03-11T05:09:56.186Z,98103.66
2023-03-11T05:14:58.351Z,98111.97
2023-03-11T05:20:00.285Z,98108.59
2023-03-11T05:25:07.449Z,98092.78
2023-03-11T05:30:10.135Z,98101.91
2023-03-11T05:35:15.062Z,98099.41
2023-03-11T05:40:17.320Z,98111.84
2023-03-11T05:45:19.587Z,98113.50
2023-03-11T05:50:24.329Z,98106.03
2023-03-11T05:55:27.533Z,98106.06
2023-03-11T06:00:29.835Z,98104.38
2023-03-11T06:05:35.665Z,98110.28
2023-03-11T06:10:37.885Z,98110.28
2023-03-11T06:15:39.937Z,98122.78
2023-03-11T06:20:41.897Z,98110.31
2023-03-11T06:25:43.699Z,98110.34
2023-03-11T06:30:46.196Z,98135.28
2023-03-11T06:36:00.908Z,98136.16
2023-03-11T06:41:04.987Z,98155.31
2023-03-11T06:46:13.507Z,98149.50
2023-03-11T06:51:15.921Z,98165.38
2023-03-11T06:56:19.328Z,98180.34
2023-03-11T07:01:26.395Z,98175.38
2023-03-11T07:06:30.175Z,98181.22
2023-03-11T07:11:38.586Z,98192.03
2023-03-11T07:16:45.466Z,98187.91
2023-03-11T07:22:02.538Z,98197.88
2023-03-11T07:27:04.402Z,98184.56
2023-03-11T07:32:09.396Z,98214.53
2023-03-11T07:37:11.214Z,98212.03
2023-03-11T07:42:12.848Z,98213.72
2023-03-11T07:47:14.480Z,98222.03
2023-03-11T07:52:16.093Z,98232.84
2023-03-11T07:57:17.732Z,98214.53
2023-03-11T08:02:19.409Z,98248.69
2023-03-11T08:07:53.638Z,98246.16
2023-03-11T08:13:19.336Z,98262.84
2023-03-11T08:18:29.407Z,98276.16
2023-03-11T08:23:32.983Z,98276.94
2023-03-11T08:28:36.946Z,98289.44
2023-03-11T08:33:38.721Z,98303.59
2023-03-11T08:38:40.938Z,98300.25
2023-03-11T08:43:44.540Z,98328.63
2023-03-11T08:48:46.364Z,98308.59
2023-03-11T08:53:48.906Z,98321.13
2023-03-11T08:58:51.088Z,98341.94
2023-03-11T09:03:52.757Z,98356.94
2023-03-11T09:08:54.433Z,98366.97
2023-03-11T09:13:56.252Z,98386.13
2023-03-11T09:19:00.358Z,98400.28
2023-03-11T09:24:04.503Z,98408.63
2023-03-11T09:29:06.323Z,98383.56
2023-03-11T09:34:08.091Z,98379.47
2023-03-11T09:39:10.075Z,98377.72
2023-03-11T09:44:17.630Z,98411.94
2023-03-11T09:49:50.296Z,98406.94
2023-03-11T09:54:55.633Z,98415.22
2023-03-11T09:59:58.025Z,98418.53
2023-03-11T10:05:28.381Z,98452.75
2023-03-11T10:10:38.392Z,98453.63
2023-03-11T10:15:43.527Z,98446.97
2023-03-11T10:20:49.128Z,98468.66
2023-03-11T10:26:08.746Z,98445.31
2023-03-11T10:31:20.203Z,98471.22
2023-03-11T10:36:29.233Z,98482.06
2023-03-11T10:41:58.032Z,98485.38
2023-03-11T10:46:59.806Z,98512.06
2023-03-11T10:52:04.079Z,98537.09
2023-03-11T10:57:29.831Z,98497.84
2023-03-11T11:02:49.451Z,98514.59
2023-03-11T11:08:02.116Z,98526.25
2023-03-11T11:13:13.164Z,98532.94
2023-03-11T11:18:23.377Z,98540.47
2023-03-11T11:23:39.611Z,98553.00
2023-03-11T11:28:41.392Z,98538.66
2023-03-11T11:33:52.481Z,98555.19
2023-03-11T11:38:54.764Z,98533.59
2023-03-11T11:44:00.301Z,98489.50
2023-03-11T11:49:20.947Z,98555.47
2023-03-11T11:54:43.076Z,98582.19
2023-03-11T11:59:45.016Z,98566.34
2023-03-11T12:05:06.271Z,98588.88
2023-03-11T12:10:23.253Z,98612.19
2023-03-11T12:15:33.836Z,98581.41
2023-03-11T12:20:42.313Z,98589.72
2023-03-11T12:25:55.307Z,98587.22
2023-03-11T12:31:02.078Z,98593.03
2023-03-11T12:36:05.597Z,98606.41
2023-03-11T12:41:48.529Z,98649.75
2023-03-11T12:46:59.400Z,98615.63
2023-03-11T12:52:05.618Z,98633.13
2023-03-11T12:57:16.450Z,98648.97
2023-03-11T13:02:55.302Z,98640.56
2023-03-11T13:08:09.954Z,98662.19
2023-03-11T13:13:23.753Z,98679.75
2023-03-11T13:18:27.968Z,98687.25
2023-03-11T13:23:34.753Z,98690.53
2023-03-11T13:28:39.312Z,98702.13
2023-03-11T13:33:50.152Z,98710.38
2023-03-11T13:39:31.518Z,98736.22
2023-03-11T13:44:39.906Z,98738.63
2023-03-11T13:50:03.251Z,98757.09
2023-03-11T13:55:18.671Z,98767.16
2023-03-11T14:00:27.955Z,98770.28
2023-03-11T14:05:34.917Z,98786.03
2023-03-11T14:10:36.609Z,98795.94
2023-03-11T14:15:47.823Z,98807.50
2023-03-11T14:20:50.094Z,98802.59
2023-03-11T14:25:59.182Z,98810.03
2023-03-11T14:31:03.092Z,98811.69
2023-03-11T14:36:12.699Z,98815.03
2023-03-11T14:41:15.595Z,98825.78
2023-03-11T14:46:27.873Z,98831.69
2023-03-11T14:51:33.446Z,98826.72
2023-03-11T14:56:40.213Z,98828.34
2023-03-11T15:01:44.581Z,98822.47
2023-03-11T15:06:46.774Z,98838.91
2023-03-11T15:11:58.164Z,98845.50
2023-03-11T15:17:33.602Z,98855.47
2023-03-11T15:22:40.906Z,98877.75
2023-03-11T15:27:42.556Z,98891.09
2023-03-11T15:32:45.146Z,98885.31
2023-03-11T15:37:48.037Z,98891.28
2023-03-11T15:43:07.284Z,98901.22
2023-03-11T15:48:11.161Z,98911.03
2023-03-11T15:53:12.750Z,98909.44
2023-03-11T15:58:16.793Z,98925.72
2023-03-11T16:03:19.150Z,98953.16
2023-03-11T16:08:20.756Z,98953.75
2023-03-11T16:13:22.397Z,98979.41
2023-03-11T16:18:24.165Z,98990.22
2023-03-11T16:23:30.740Z,99002.56
2023-03-11T16:28:33.901Z,98998.22
2023-03-11T16:33:38.593Z,99024.78
2023-03-11T16:38:47.162Z,99034.69
2023-03-11T16:43:48.923Z,99039.38
2023-03-11T16:48:50.820Z,99049.28
2023-03-11T16:53:52.493Z,99066.03
2023-03-11T16:58:54.110Z,99080.72
2023-03-11T17:03:55.762Z,99109.19
2023-03-11T17:08:57.360Z,99106.56
2023-03-11T17:14:13.940Z,99119.81
2023-03-11T17:19:17.914Z,99125.44
2023-03-11T17:24:19.630Z,99140.56
2023-03-11T17:29:21.508Z,99149.41
2023-03-11T17:34:23.500Z,99170.19
2023-03-11T17:39:25.210Z,99175.00
2023-03-11T17:44:26.816Z,99188.25
2023-03-11T17:49:28.505Z,99180.66
2023-03-11T17:54:30.120Z,99191.34
2023-03-11T17:59:31.779Z,99208.16
2023-03-11T18:04:33.443Z,99224.75
2023-03-11T18:09:35.050Z,99225.19
2023-03-11T18:14:36.944Z,99232.63
2023-03-11T18:19:39.006Z,99256.72
2023-03-11T18:24:40.617Z,99274.44
2023-03-11T18:29:42.330Z,99262.78
2023-03-11T18:34:44.152Z,99270.84
2023-03-11T18:39:45.725Z,99285.09
2023-03-11T18:44:47.333Z,99297.63
2023-03-11T18:49:49.045Z,99294.06
2023-03-11T18:54:50.606Z,99300.78
2023-03-11T18:59:52.438Z,99300.63
2023-03-11T19:04:54.401Z,99310.75
2023-03-11T19:09:56.075Z,99314.69
2023-03-11T19:14:57.850Z,99311.25
2023-03-11T19:19:59.597Z,99314.25
2023-03-11T19:25:01.412Z,99325.25
2023-03-11T19:30:03.259Z,99323.00
2023-03-11T19:35:05.730Z,99333.56
2023-03-11T19:40:10.312Z,99346.03
2023-03-11T19:45:13.031Z,99345.59
2023-03-11T19:50:14.699Z,99361.84
2023-03-11T19:55:16.709Z,99366.34
2023-03-11T20:00:18.975Z,99374.19
2023-03-11T20:05:20.757Z,99379.84
2023-03-11T20:10:22.632Z,99370.47
2023-03-11T20:15:24.449Z,99378.69
2023-03-11T20:20:26.174Z,99387.41
2023-03-11T20:25:29.662Z,99392.28
2023-03-11T20:30:31.465Z,99395.75
2023-03-11T20:35:33.448Z,99401.50
2023-03-11T20:40:35.165Z,99403.97
2023-03-11T20:45:36.908Z,99408.19
2023-03-11T20:50:38.628Z,99416.59
2023-03-11T20:55:43.140Z,99423.34
2023-03-11T21:00:44.806Z,99418.94
2023-03-11T21:05:46.428Z,99423.75
2023-03-11T21:10:48.114Z,99431.59
2023-03-11T21:15:49.862Z,99432.13
2023-03-11T21:20:51.565Z,99442.19
2023-03-11T21:26:00.944Z,99447.94
2023-03-11T21:31:11.564Z,99456.25
2023-03-11T21:36:17.452Z,99460.69
2023-03-11T21:41:21.990Z,99453.81
2023-03-11T21:46:26.958Z,99458.88
2023-03-11T21:51:29.174Z,99461.06
2023-03-11T21:56:30.845Z,99470.22
2023-03-11T22:01:34.062Z,99483.53
2023-03-11T22:06:35.817Z,99489.09
2023-03-11T22:11:37.527Z,99494.94
2023-03-11T22:16:39.217Z,99501.50
2023-03-11T22:21:40.975Z,99502.31
2023-03-11T22:26:42.585Z,99509.44
2023-03-11T22:31:44.477Z,99517.78
2023-03-11T22:36:46.102Z,99511.19
2023-03-11T22:41:47.681Z,99517.69
2023-03-11T22:46:49.253Z,99528.22
2023-03-11T22:51:51.068Z,99533.28
2023-03-11T22:56:52.685Z,99531.47
2023-03-11T23:01:55.116Z,99532.84
2023-03-11T23:06:56.683Z,99535.13
2023-03-11T23:11:58.285Z,99537.03
2023-03-11T23:16:59.931Z,99545.81
2023-03-11T23:22:01.592Z,99546.13
2023-03-11T23:27:04.877Z,99550.72
2023-03-11T23:32:06.943Z,99548.81
2023-03-11T23:37:08.877Z,99556.72
2023-03-11T23:42:24.483Z,99560.91
2023-03-11T23:47:27.570Z,99574.31
2023-03-11T23:52:29.323Z,99581.56
2023-03-11T23:57:30.996Z,99584.75
